sensor_id;sensor_type;location;lat;lon;timestamp;P1;durP1;ratioP1;P2;durP2;ratioP2
70806;SDS011;58882;52.170;5.386;2022-08-14T00:02:24;10.77;;;5.70;;
70806;SDS011;58882;52.170;5.386;2022-08-14T00:05:13;8.48;;;4.95;;
70806;SDS011;58882;52.170;5.386;2022-08-14T00:07:49;9.68;;;5.45;;
70806;SDS011;58882;52.170;5.386;2022-08-14T00:10:52;9.98;;;5.68;;
70806;SDS011;58882;52.170;5.386;2022-08-14T00:13:44;9.10;;;5.50;;
70806;SDS011;58882;52.170;5.386;2022-08-14T00:16:41;10.13;;;5.50;;
70806;SDS011;58882;52.170;5.386;2022-08-14T00:19:27;11.95;;;5.82;;
70806;SDS011;58882;52.170;5.386;2022-08-14T00:22:15;9.32;;;5.82;;
70806;SDS011;58882;52.170;5.386;2022-08-14T00:25:10;11.05;;;6.07;;
70806;SDS011;58882;52.170;5.386;2022-08-14T00:28:21;8.98;;;5.90;;
70806;SDS011;58882;52.170;5.386;2022-08-14T00:31:06;8.60;;;5.78;;
70806;SDS011;58882;52.170;5.386;2022-08-14T00:33:53;9.82;;;5.97;;
70806;SDS011;58882;52.170;5.386;2022-08-14T00:36:32;12.63;;;5.95;;
70806;SDS011;58882;52.170;5.386;2022-08-14T00:39:28;11.45;;;5.60;;
70806;SDS011;58882;52.170;5.386;2022-08-14T00:42:08;10.82;;;6.18;;
70806;SDS011;58882;52.170;5.386;2022-08-14T00:45:15;11.30;;;6.10;;
70806;SDS011;58882;52.170;5.386;2022-08-14T00:47:55;9.13;;;5.75;;
70806;SDS011;58882;52.170;5.386;2022-08-14T00:50:49;9.73;;;5.93;;
70806;SDS011;58882;52.170;5.386;2022-08-14T00:53:27;11.10;;;6.30;;
70806;SDS011;58882;52.170;5.386;2022-08-14T00:56:23;12.98;;;6.32;;
70806;SDS011;58882;52.170;5.386;2022-08-14T00:59:04;9.73;;;5.88;;
70806;SDS011;58882;52.170;5.386;2022-08-14T01:01:59;8.90;;;6.05;;
70806;SDS011;58882;52.170;5.386;2022-08-14T01:04:41;14.65;;;6.30;;
70806;SDS011;58882;52.170;5.386;2022-08-14T01:07:36;11.18;;;6.88;;
70806;SDS011;58882;52.170;5.386;2022-08-14T01:10:29;10.57;;;5.65;;
70806;SDS011;58882;52.170;5.386;2022-08-14T01:13:38;9.27;;;6.50;;
70806;SDS011;58882;52.170;5.386;2022-08-14T01:16:39;13.45;;;6.53;;
70806;SDS011;58882;52.170;5.386;2022-08-14T01:19:25;11.18;;;6.75;;
70806;SDS011;58882;52.170;5.386;2022-08-14T01:22:33;10.55;;;6.40;;
70806;SDS011;58882;52.170;5.386;2022-08-14T01:25:14;11.20;;;7.10;;
70806;SDS011;58882;52.170;5.386;2022-08-14T01:28:08;10.02;;;6.80;;
70806;SDS011;58882;52.170;5.386;2022-08-14T01:31:03;12.43;;;7.15;;
70806;SDS011;58882;52.170;5.386;2022-08-14T01:33:59;11.68;;;7.10;;
70806;SDS011;58882;52.170;5.386;2022-08-14T01:37:00;11.85;;;6.90;;
70806;SDS011;58882;52.170;5.386;2022-08-14T01:39:43;11.25;;;6.57;;
70806;SDS011;58882;52.170;5.386;2022-08-14T01:42:37;9.88;;;6.53;;
70806;SDS011;58882;52.170;5.386;2022-08-14T01:45:15;11.98;;;7.10;;
70806;SDS011;58882;52.170;5.386;2022-08-14T01:48:18;10.90;;;7.00;;
70806;SDS011;58882;52.170;5.386;2022-08-14T01:50:59;10.43;;;6.53;;
70806;SDS011;58882;52.170;5.386;2022-08-14T01:54:00;9.68;;;6.30;;
70806;SDS011;58882;52.170;5.386;2022-08-14T01:56:45;13.45;;;7.20;;
70806;SDS011;58882;52.170;5.386;2022-08-14T01:59:34;11.23;;;6.95;;
70806;SDS011;58882;52.170;5.386;2022-08-14T02:02:15;10.52;;;6.68;;
70806;SDS011;58882;52.170;5.386;2022-08-14T02:05:03;11.65;;;6.90;;
70806;SDS011;58882;52.170;5.386;2022-08-14T02:07:43;11.27;;;6.75;;
70806;SDS011;58882;52.170;5.386;2022-08-14T02:10:46;13.93;;;6.47;;
70806;SDS011;58882;52.170;5.386;2022-08-14T02:14:06;10.38;;;6.95;;
70806;SDS011;58882;52.170;5.386;2022-08-14T02:17:10;12.05;;;7.13;;
70806;SDS011;58882;52.170;5.386;2022-08-14T02:19:54;10.77;;;7.05;;
70806;SDS011;58882;52.170;5.386;2022-08-14T02:22:42;14.35;;;6.95;;
70806;SDS011;58882;52.170;5.386;2022-08-14T02:25:25;12.02;;;7.00;;
70806;SDS011;58882;52.170;5.386;2022-08-14T02:28:11;13.15;;;7.03;;
70806;SDS011;58882;52.170;5.386;2022-08-14T02:31:12;13.43;;;7.28;;
70806;SDS011;58882;52.170;5.386;2022-08-14T02:34:21;10.73;;;7.05;;
70806;SDS011;58882;52.170;5.386;2022-08-14T02:37:09;10.23;;;6.85;;
70806;SDS011;58882;52.170;5.386;2022-08-14T02:40:24;12.45;;;7.00;;
70806;SDS011;58882;52.170;5.386;2022-08-14T02:43:08;14.55;;;6.68;;
70806;SDS011;58882;52.170;5.386;2022-08-14T02:46:00;11.00;;;7.05;;
70806;SDS011;58882;52.170;5.386;2022-08-14T02:48:43;11.60;;;6.88;;
70806;SDS011;58882;52.170;5.386;2022-08-14T02:51:38;13.00;;;7.35;;
70806;SDS011;58882;52.170;5.386;2022-08-14T02:54:26;9.70;;;7.07;;
70806;SDS011;58882;52.170;5.386;2022-08-14T02:57:12;10.73;;;7.13;;
70806;SDS011;58882;52.170;5.386;2022-08-14T03:00:19;12.43;;;6.75;;
70806;SDS011;58882;52.170;5.386;2022-08-14T03:03:01;11.70;;;7.25;;
70806;SDS011;58882;52.170;5.386;2022-08-14T03:05:51;14.70;;;7.22;;
70806;SDS011;58882;52.170;5.386;2022-08-14T03:08:32;12.25;;;7.65;;
70806;SDS011;58882;52.170;5.386;2022-08-14T03:11:27;10.63;;;7.57;;
70806;SDS011;58882;52.170;5.386;2022-08-14T03:14:14;12.57;;;7.07;;
70806;SDS011;58882;52.170;5.386;2022-08-14T03:16:54;10.60;;;7.13;;
70806;SDS011;58882;52.170;5.386;2022-08-14T03:19:42;10.77;;;7.18;;
70806;SDS011;58882;52.170;5.386;2022-08-14T03:22:22;12.55;;;7.47;;
70806;SDS011;58882;52.170;5.386;2022-08-14T03:25:09;13.20;;;7.43;;
70806;SDS011;58882;52.170;5.386;2022-08-14T03:27:50;12.82;;;7.30;;
70806;SDS011;58882;52.170;5.386;2022-08-14T03:30:45;11.68;;;7.25;;
70806;SDS011;58882;52.170;5.386;2022-08-14T03:33:27;13.35;;;7.28;;
70806;SDS011;58882;52.170;5.386;2022-08-14T03:36:17;11.35;;;8.07;;
70806;SDS011;58882;52.170;5.386;2022-08-14T03:39:20;11.73;;;7.90;;
70806;SDS011;58882;52.170;5.386;2022-08-14T03:42:15;13.27;;;7.68;;
70806;SDS011;58882;52.170;5.386;2022-08-14T03:45:03;11.68;;;7.75;;
70806;SDS011;58882;52.170;5.386;2022-08-14T03:48:11;13.02;;;7.35;;
70806;SDS011;58882;52.170;5.386;2022-08-14T03:51:03;11.32;;;8.05;;
70806;SDS011;58882;52.170;5.386;2022-08-14T03:53:51;12.73;;;8.18;;
70806;SDS011;58882;52.170;5.386;2022-08-14T03:56:31;13.52;;;8.60;;
70806;SDS011;58882;52.170;5.386;2022-08-14T03:59:31;12.27;;;8.40;;
70806;SDS011;58882;52.170;5.386;2022-08-14T04:02:12;11.75;;;8.20;;
70806;SDS011;58882;52.170;5.386;2022-08-14T04:05:15;13.68;;;7.65;;
70806;SDS011;58882;52.170;5.386;2022-08-14T04:07:57;12.82;;;8.13;;
70806;SDS011;58882;52.170;5.386;2022-08-14T04:10:58;12.98;;;8.48;;
70806;SDS011;58882;52.170;5.386;2022-08-14T04:13:48;12.23;;;8.38;;
70806;SDS011;58882;52.170;5.386;2022-08-14T04:16:29;11.30;;;7.93;;
70806;SDS011;58882;52.170;5.386;2022-08-14T04:19:17;14.75;;;8.50;;
70806;SDS011;58882;52.170;5.386;2022-08-14T04:22:08;13.05;;;8.52;;
70806;SDS011;58882;52.170;5.386;2022-08-14T04:25:02;12.55;;;8.13;;
70806;SDS011;58882;52.170;5.386;2022-08-14T04:27:43;12.32;;;8.65;;
70806;SDS011;58882;52.170;5.386;2022-08-14T04:30:41;12.75;;;8.45;;
70806;SDS011;58882;52.170;5.386;2022-08-14T04:33:22;15.23;;;8.80;;
70806;SDS011;58882;52.170;5.386;2022-08-14T04:36:10;14.73;;;9.38;;
70806;SDS011;58882;52.170;5.386;2022-08-14T04:38:50;12.70;;;8.30;;
70806;SDS011;58882;52.170;5.386;2022-08-14T04:41:56;12.95;;;8.63;;
70806;SDS011;58882;52.170;5.386;2022-08-14T04:44:56;13.13;;;8.50;;
70806;SDS011;58882;52.170;5.386;2022-08-14T04:47:52;13.27;;;8.93;;
70806;SDS011;58882;52.170;5.386;2022-08-14T04:51:11;14.20;;;9.93;;
70806;SDS011;58882;52.170;5.386;2022-08-14T04:54:08;12.45;;;8.48;;
70806;SDS011;58882;52.170;5.386;2022-08-14T04:56:48;13.70;;;8.48;;
70806;SDS011;58882;52.170;5.386;2022-08-14T04:59:42;14.88;;;8.98;;
70806;SDS011;58882;52.170;5.386;2022-08-14T05:02:23;14.30;;;8.88;;
70806;SDS011;58882;52.170;5.386;2022-08-14T05:05:14;14.57;;;8.70;;
70806;SDS011;58882;52.170;5.386;2022-08-14T05:07:54;14.13;;;8.98;;
70806;SDS011;58882;52.170;5.386;2022-08-14T05:11:10;13.55;;;8.68;;
70806;SDS011;58882;52.170;5.386;2022-08-14T05:13:58;15.02;;;8.27;;
70806;SDS011;58882;52.170;5.386;2022-08-14T05:17:12;13.02;;;8.38;;
70806;SDS011;58882;52.170;5.386;2022-08-14T05:19:53;20.73;;;9.13;;
70806;SDS011;58882;52.170;5.386;2022-08-14T05:23:09;13.95;;;10.00;;
70806;SDS011;58882;52.170;5.386;2022-08-14T05:25:49;15.77;;;8.82;;
70806;SDS011;58882;52.170;5.386;2022-08-14T05:28:41;13.88;;;8.80;;
70806;SDS011;58882;52.170;5.386;2022-08-14T05:31:23;12.98;;;9.00;;
70806;SDS011;58882;52.170;5.386;2022-08-14T05:34:18;14.02;;;8.57;;
70806;SDS011;58882;52.170;5.386;2022-08-14T05:37:03;14.90;;;9.07;;
70806;SDS011;58882;52.170;5.386;2022-08-14T05:39:49;15.68;;;9.07;;
70806;SDS011;58882;52.170;5.386;2022-08-14T05:42:30;14.00;;;8.93;;
70806;SDS011;58882;52.170;5.386;2022-08-14T05:45:16;13.90;;;9.32;;
70806;SDS011;58882;52.170;5.386;2022-08-14T05:47:57;14.80;;;8.93;;
70806;SDS011;58882;52.170;5.386;2022-08-14T05:50:47;13.93;;;9.30;;
70806;SDS011;58882;52.170;5.386;2022-08-14T05:53:28;13.85;;;8.95;;
70806;SDS011;58882;52.170;5.386;2022-08-14T05:56:21;13.02;;;8.98;;
70806;SDS011;58882;52.170;5.386;2022-08-14T05:59:04;13.43;;;8.77;;
70806;SDS011;58882;52.170;5.386;2022-08-14T06:01:57;12.98;;;8.75;;
70806;SDS011;58882;52.170;5.386;2022-08-14T06:04:38;13.77;;;9.40;;
70806;SDS011;58882;52.170;5.386;2022-08-14T06:07:37;15.15;;;9.00;;
70806;SDS011;58882;52.170;5.386;2022-08-14T06:10:17;15.32;;;9.05;;
70806;SDS011;58882;52.170;5.386;2022-08-14T06:13:14;13.10;;;8.70;;
70806;SDS011;58882;52.170;5.386;2022-08-14T06:16:11;12.82;;;8.77;;
70806;SDS011;58882;52.170;5.386;2022-08-14T06:18:56;15.00;;;9.32;;
70806;SDS011;58882;52.170;5.386;2022-08-14T06:21:43;13.80;;;9.35;;
70806;SDS011;58882;52.170;5.386;2022-08-14T06:24:31;16.38;;;9.40;;
70806;SDS011;58882;52.170;5.386;2022-08-14T06:27:22;15.20;;;9.18;;
70806;SDS011;58882;52.170;5.386;2022-08-14T06:30:06;12.95;;;9.30;;
70806;SDS011;58882;52.170;5.386;2022-08-14T06:32:54;14.90;;;9.85;;
70806;SDS011;58882;52.170;5.386;2022-08-14T06:35:38;14.90;;;9.60;;
70806;SDS011;58882;52.170;5.386;2022-08-14T06:38:25;12.88;;;9.18;;
70806;SDS011;58882;52.170;5.386;2022-08-14T06:41:06;12.88;;;9.25;;
70806;SDS011;58882;52.170;5.386;2022-08-14T06:43:59;14.30;;;10.25;;
70806;SDS011;58882;52.170;5.386;2022-08-14T06:46:42;15.25;;;9.52;;
70806;SDS011;58882;52.170;5.386;2022-08-14T06:49:29;15.18;;;9.27;;
70806;SDS011;58882;52.170;5.386;2022-08-14T06:52:19;16.15;;;9.02;;
70806;SDS011;58882;52.170;5.386;2022-08-14T06:55:14;14.77;;;8.57;;
70806;SDS011;58882;52.170;5.386;2022-08-14T06:58:01;16.35;;;10.35;;
70806;SDS011;58882;52.170;5.386;2022-08-14T07:01:04;14.52;;;9.40;;
70806;SDS011;58882;52.170;5.386;2022-08-14T07:04:04;14.35;;;9.57;;
70806;SDS011;58882;52.170;5.386;2022-08-14T07:07:11;16.02;;;10.52;;
70806;SDS011;58882;52.170;5.386;2022-08-14T07:09:53;15.05;;;10.00;;
70806;SDS011;58882;52.170;5.386;2022-08-14T07:12:40;11.25;;;8.50;;
70806;SDS011;58882;52.170;5.386;2022-08-14T07:15:40;13.88;;;8.10;;
70806;SDS011;58882;52.170;5.386;2022-08-14T07:18:38;12.13;;;7.95;;
70806;SDS011;58882;52.170;5.386;2022-08-14T07:21:23;20.25;;;8.50;;
70806;SDS011;58882;52.170;5.386;2022-08-14T07:24:12;16.02;;;7.65;;
70806;SDS011;58882;52.170;5.386;2022-08-14T07:26:58;20.23;;;7.07;;
70806;SDS011;58882;52.170;5.386;2022-08-14T07:29:47;10.80;;;7.07;;
70806;SDS011;58882;52.170;5.386;2022-08-14T07:32:21;11.88;;;6.78;;
70806;SDS011;58882;52.170;5.386;2022-08-14T07:35:14;10.60;;;6.70;;
70806;SDS011;58882;52.170;5.386;2022-08-14T07:37:55;11.77;;;6.70;;
70806;SDS011;58882;52.170;5.386;2022-08-14T07:40:41;10.35;;;6.95;;
70806;SDS011;58882;52.170;5.386;2022-08-14T07:43:25;12.90;;;6.88;;
70806;SDS011;58882;52.170;5.386;2022-08-14T07:46:18;13.93;;;6.88;;
70806;SDS011;58882;52.170;5.386;2022-08-14T07:49:03;10.00;;;6.72;;
70806;SDS011;58882;52.170;5.386;2022-08-14T07:51:56;12.55;;;7.57;;
70806;SDS011;58882;52.170;5.386;2022-08-14T07:54:40;11.60;;;6.47;;
70806;SDS011;58882;52.170;5.386;2022-08-14T07:57:26;10.40;;;6.20;;
70806;SDS011;58882;52.170;5.386;2022-08-14T08:00:07;9.18;;;6.03;;
70806;SDS011;58882;52.170;5.386;2022-08-14T08:03:09;17.13;;;6.70;;
70806;SDS011;58882;52.170;5.386;2022-08-14T08:05:44;10.25;;;6.70;;
70806;SDS011;58882;52.170;5.386;2022-08-14T08:08:38;9.75;;;6.57;;
70806;SDS011;58882;52.170;5.386;2022-08-14T08:11:34;14.95;;;6.80;;
70806;SDS011;58882;52.170;5.386;2022-08-14T08:14:36;9.93;;;6.40;;
70806;SDS011;58882;52.170;5.386;2022-08-14T08:17:36;10.75;;;6.28;;
70806;SDS011;58882;52.170;5.386;2022-08-14T08:20:37;12.05;;;6.53;;
70806;SDS011;58882;52.170;5.386;2022-08-14T08:23:38;10.55;;;5.72;;
70806;SDS011;58882;52.170;5.386;2022-08-14T08:26:27;9.15;;;6.15;;
70806;SDS011;58882;52.170;5.386;2022-08-14T08:29:22;9.23;;;6.00;;
70806;SDS011;58882;52.170;5.386;2022-08-14T08:32:02;9.85;;;5.85;;
70806;SDS011;58882;52.170;5.386;2022-08-14T08:34:48;8.57;;;5.80;;
70806;SDS011;58882;52.170;5.386;2022-08-14T08:37:22;8.60;;;6.40;;
70806;SDS011;58882;52.170;5.386;2022-08-14T08:40:25;9.98;;;5.95;;
70806;SDS011;58882;52.170;5.386;2022-08-14T08:43:20;7.78;;;5.82;;
70806;SDS011;58882;52.170;5.386;2022-08-14T08:46:09;9.32;;;5.90;;
70806;SDS011;58882;52.170;5.386;2022-08-14T08:48:55;8.38;;;6.03;;
70806;SDS011;58882;52.170;5.386;2022-08-14T08:51:45;10.35;;;6.22;;
70806;SDS011;58882;52.170;5.386;2022-08-14T08:54:26;9.55;;;5.78;;
70806;SDS011;58882;52.170;5.386;2022-08-14T08:57:12;8.52;;;6.38;;
70806;SDS011;58882;52.170;5.386;2022-08-14T08:59:53;9.40;;;6.03;;
70806;SDS011;58882;52.170;5.386;2022-08-14T09:02:41;10.65;;;6.10;;
70806;SDS011;58882;52.170;5.386;2022-08-14T09:05:31;9.85;;;5.82;;
70806;SDS011;58882;52.170;5.386;2022-08-14T09:08:20;8.65;;;5.78;;
70806;SDS011;58882;52.170;5.386;2022-08-14T09:11:09;7.88;;;5.60;;
70806;SDS011;58882;52.170;5.386;2022-08-14T09:13:59;9.50;;;6.22;;
70806;SDS011;58882;52.170;5.386;2022-08-14T09:16:57;8.02;;;5.55;;
70806;SDS011;58882;52.170;5.386;2022-08-14T09:19:34;8.55;;;5.88;;
70806;SDS011;58882;52.170;5.386;2022-08-14T09:22:30;7.40;;;5.50;;
70806;SDS011;58882;52.170;5.386;2022-08-14T09:25:26;8.10;;;6.07;;
70806;SDS011;58882;52.170;5.386;2022-08-14T09:28:20;8.15;;;5.53;;
70806;SDS011;58882;52.170;5.386;2022-08-14T09:31:13;8.77;;;5.90;;
70806;SDS011;58882;52.170;5.386;2022-08-14T09:46:06;7.88;;;5.40;;
70806;SDS011;58882;52.170;5.386;2022-08-14T09:49:00;8.43;;;5.70;;
70806;SDS011;58882;52.170;5.386;2022-08-14T09:51:48;7.75;;;5.63;;
70806;SDS011;58882;52.170;5.386;2022-08-14T09:54:40;7.60;;;5.40;;
70806;SDS011;58882;52.170;5.386;2022-08-14T09:57:28;7.03;;;5.15;;
70806;SDS011;58882;52.170;5.386;2022-08-14T10:00:39;7.28;;;4.95;;
70806;SDS011;58882;52.170;5.386;2022-08-14T10:03:34;7.32;;;5.20;;
70806;SDS011;58882;52.170;5.386;2022-08-14T10:06:31;8.35;;;5.40;;
70806;SDS011;58882;52.170;5.386;2022-08-14T10:09:24;7.75;;;5.60;;
70806;SDS011;58882;52.170;5.386;2022-08-14T10:12:17;8.70;;;5.45;;
70806;SDS011;58882;52.170;5.386;2022-08-14T10:15:15;8.77;;;5.60;;
70806;SDS011;58882;52.170;5.386;2022-08-14T10:18:13;7.25;;;4.93;;
70806;SDS011;58882;52.170;5.386;2022-08-14T10:20:57;7.13;;;5.20;;
70806;SDS011;58882;52.170;5.386;2022-08-14T10:23:47;7.20;;;4.82;;
70806;SDS011;58882;52.170;5.386;2022-08-14T10:26:28;8.77;;;5.57;;
70806;SDS011;58882;52.170;5.386;2022-08-14T10:29:29;7.65;;;5.35;;
70806;SDS011;58882;52.170;5.386;2022-08-14T10:32:13;8.13;;;5.55;;
70806;SDS011;58882;52.170;5.386;2022-08-14T10:35:09;8.68;;;5.63;;
70806;SDS011;58882;52.170;5.386;2022-08-14T10:37:55;7.85;;;5.40;;
70806;SDS011;58882;52.170;5.386;2022-08-14T10:40:45;8.52;;;5.78;;
70806;SDS011;58882;52.170;5.386;2022-08-14T10:43:31;7.47;;;5.65;;
70806;SDS011;58882;52.170;5.386;2022-08-14T10:46:26;7.07;;;5.28;;
70806;SDS011;58882;52.170;5.386;2022-08-14T10:49:41;7.13;;;5.60;;
70806;SDS011;58882;52.170;5.386;2022-08-14T10:52:42;7.05;;;5.25;;
70806;SDS011;58882;52.170;5.386;2022-08-14T10:55:17;6.97;;;5.30;;
70806;SDS011;58882;52.170;5.386;2022-08-14T10:58:11;6.68;;;4.90;;
70806;SDS011;58882;52.170;5.386;2022-08-14T11:00:54;7.38;;;5.55;;
70806;SDS011;58882;52.170;5.386;2022-08-14T11:03:42;8.05;;;5.15;;
70806;SDS011;58882;52.170;5.386;2022-08-14T11:06:29;7.05;;;5.15;;
70806;SDS011;58882;52.170;5.386;2022-08-14T11:09:24;7.53;;;5.07;;
70806;SDS011;58882;52.170;5.386;2022-08-14T11:12:04;8.07;;;5.28;;
70806;SDS011;58882;52.170;5.386;2022-08-14T11:15:11;8.70;;;5.80;;
70806;SDS011;58882;52.170;5.386;2022-08-14T11:17:55;7.00;;;4.80;;
70806;SDS011;58882;52.170;5.386;2022-08-14T11:23:28;8.15;;;5.15;;
70806;SDS011;58882;52.170;5.386;2022-08-14T11:26:22;7.07;;;5.30;;
70806;SDS011;58882;52.170;5.386;2022-08-14T11:29:08;6.90;;;4.90;;
70806;SDS011;58882;52.170;5.386;2022-08-14T11:31:55;8.80;;;5.13;;
70806;SDS011;58882;52.170;5.386;2022-08-14T11:34:38;6.97;;;5.05;;
70806;SDS011;58882;52.170;5.386;2022-08-14T11:37:24;7.22;;;5.18;;
70806;SDS011;58882;52.170;5.386;2022-08-14T11:40:16;8.25;;;5.20;;
70806;SDS011;58882;52.170;5.386;2022-08-14T11:43:07;7.07;;;4.88;;
70806;SDS011;58882;52.170;5.386;2022-08-14T11:45:48;6.78;;;4.93;;
70806;SDS011;58882;52.170;5.386;2022-08-14T11:51:36;6.65;;;4.85;;
70806;SDS011;58882;52.170;5.386;2022-08-14T11:54:33;7.72;;;4.70;;
70806;SDS011;58882;52.170;5.386;2022-08-14T11:57:14;6.68;;;4.85;;
70806;SDS011;58882;52.170;5.386;2022-08-14T12:00:06;7.68;;;4.93;;
70806;SDS011;58882;52.170;5.386;2022-08-14T12:03:04;9.75;;;5.25;;
70806;SDS011;58882;52.170;5.386;2022-08-14T12:06:17;6.70;;;5.13;;
70806;SDS011;58882;52.170;5.386;2022-08-14T12:09:05;6.03;;;4.63;;
70806;SDS011;58882;52.170;5.386;2022-08-14T12:11:53;7.35;;;4.88;;
70806;SDS011;58882;52.170;5.386;2022-08-14T12:14:35;7.88;;;5.32;;
70806;SDS011;58882;52.170;5.386;2022-08-14T12:17:46;6.65;;;5.07;;
70806;SDS011;58882;52.170;5.386;2022-08-14T12:20:32;6.95;;;5.00;;
70806;SDS011;58882;52.170;5.386;2022-08-14T12:23:31;7.30;;;4.65;;
70806;SDS011;58882;52.170;5.386;2022-08-14T12:26:04;8.35;;;4.80;;
70806;SDS011;58882;52.170;5.386;2022-08-14T12:29:20;6.40;;;4.60;;
70806;SDS011;58882;52.170;5.386;2022-08-14T12:32:03;8.65;;;5.05;;
70806;SDS011;58882;52.170;5.386;2022-08-14T12:34:52;7.05;;;4.97;;
70806;SDS011;58882;52.170;5.386;2022-08-14T12:37:34;8.52;;;5.03;;
70806;SDS011;58882;52.170;5.386;2022-08-14T12:40:29;6.53;;;4.57;;
70806;SDS011;58882;52.170;5.386;2022-08-14T12:43:11;7.15;;;5.00;;
70806;SDS011;58882;52.170;5.386;2022-08-14T12:46:00;8.05;;;5.45;;
70806;SDS011;58882;52.170;5.386;2022-08-14T12:48:54;7.35;;;5.07;;
70806;SDS011;58882;52.170;5.386;2022-08-14T12:52:03;7.78;;;5.18;;
70806;SDS011;58882;52.170;5.386;2022-08-14T12:54:55;7.57;;;4.72;;
70806;SDS011;58882;52.170;5.386;2022-08-14T12:57:47;7.45;;;5.10;;
70806;SDS011;58882;52.170;5.386;2022-08-14T13:00:30;7.95;;;5.15;;
70806;SDS011;58882;52.170;5.386;2022-08-14T13:03:40;7.22;;;5.00;;
70806;SDS011;58882;52.170;5.386;2022-08-14T13:06:24;7.72;;;4.93;;
70806;SDS011;58882;52.170;5.386;2022-08-14T13:09:13;7.00;;;4.93;;
70806;SDS011;58882;52.170;5.386;2022-08-14T13:11:55;7.93;;;5.20;;
70806;SDS011;58882;52.170;5.386;2022-08-14T13:15:08;7.00;;;5.07;;
70806;SDS011;58882;52.170;5.386;2022-08-14T13:18:03;8.07;;;5.07;;
70806;SDS011;58882;52.170;5.386;2022-08-14T13:20:37;8.07;;;5.00;;
70806;SDS011;58882;52.170;5.386;2022-08-14T13:23:40;7.18;;;5.10;;
70806;SDS011;58882;52.170;5.386;2022-08-14T13:26:23;7.38;;;5.28;;
70806;SDS011;58882;52.170;5.386;2022-08-14T13:29:11;7.60;;;4.93;;
70806;SDS011;58882;52.170;5.386;2022-08-14T13:31:54;6.80;;;4.93;;
70806;SDS011;58882;52.170;5.386;2022-08-14T13:34:47;6.97;;;4.97;;
70806;SDS011;58882;52.170;5.386;2022-08-14T13:37:28;7.43;;;5.18;;
70806;SDS011;58882;52.170;5.386;2022-08-14T13:40:17;6.95;;;5.15;;
70806;SDS011;58882;52.170;5.386;2022-08-14T13:42:59;7.07;;;5.00;;
70806;SDS011;58882;52.170;5.386;2022-08-14T13:45:47;7.72;;;4.90;;
70806;SDS011;58882;52.170;5.386;2022-08-14T13:48:33;7.65;;;4.93;;
70806;SDS011;58882;52.170;5.386;2022-08-14T13:51:28;7.35;;;4.88;;
70806;SDS011;58882;52.170;5.386;2022-08-14T13:54:33;7.25;;;5.03;;
70806;SDS011;58882;52.170;5.386;2022-08-14T13:57:14;7.53;;;4.93;;
70806;SDS011;58882;52.170;5.386;2022-08-14T14:00:10;6.80;;;4.60;;
70806;SDS011;58882;52.170;5.386;2022-08-14T14:02:49;7.88;;;5.35;;
70806;SDS011;58882;52.170;5.386;2022-08-14T14:05:44;7.28;;;5.07;;
70806;SDS011;58882;52.170;5.386;2022-08-14T14:08:29;7.00;;;4.90;;
70806;SDS011;58882;52.170;5.386;2022-08-14T14:11:28;7.03;;;5.00;;
70806;SDS011;58882;52.170;5.386;2022-08-14T14:14:03;7.13;;;4.97;;
70806;SDS011;58882;52.170;5.386;2022-08-14T14:17:17;7.25;;;5.20;;
70806;SDS011;58882;52.170;5.386;2022-08-14T14:20:11;7.28;;;5.13;;
70806;SDS011;58882;52.170;5.386;2022-08-14T14:23:08;7.55;;;4.72;;
70806;SDS011;58882;52.170;5.386;2022-08-14T14:25:59;7.20;;;5.07;;
70806;SDS011;58882;52.170;5.386;2022-08-14T14:28:47;7.60;;;5.10;;
70806;SDS011;58882;52.170;5.386;2022-08-14T14:31:35;8.52;;;5.53;;
70806;SDS011;58882;52.170;5.386;2022-08-14T14:34:15;7.68;;;5.07;;
70806;SDS011;58882;52.170;5.386;2022-08-14T14:37:09;8.50;;;5.05;;
70806;SDS011;58882;52.170;5.386;2022-08-14T14:39:54;9.13;;;5.20;;
70806;SDS011;58882;52.170;5.386;2022-08-14T14:43:03;7.35;;;5.68;;
70806;SDS011;58882;52.170;5.386;2022-08-14T14:45:47;7.55;;;4.80;;
70806;SDS011;58882;52.170;5.386;2022-08-14T14:48:48;8.77;;;5.30;;
70806;SDS011;58882;52.170;5.386;2022-08-14T14:51:28;8.40;;;4.97;;
70806;SDS011;58882;52.170;5.386;2022-08-14T14:54:20;7.82;;;4.82;;
70806;SDS011;58882;52.170;5.386;2022-08-14T14:57:09;6.95;;;4.85;;
70806;SDS011;58882;52.170;5.386;2022-08-14T14:59:58;7.93;;;5.18;;
70806;SDS011;58882;52.170;5.386;2022-08-14T15:02:39;7.40;;;5.25;;
70806;SDS011;58882;52.170;5.386;2022-08-14T15:05:38;8.00;;;5.40;;
70806;SDS011;58882;52.170;5.386;2022-08-14T15:08:11;7.68;;;4.63;;
70806;SDS011;58882;52.170;5.386;2022-08-14T15:11:25;8.35;;;5.03;;
70806;SDS011;58882;52.170;5.386;2022-08-14T15:14:05;8.15;;;5.25;;
70806;SDS011;58882;52.170;5.386;2022-08-14T15:17:12;7.00;;;4.90;;
70806;SDS011;58882;52.170;5.386;2022-08-14T15:19:45;7.18;;;5.28;;
70806;SDS011;58882;52.170;5.386;2022-08-14T15:22:41;7.47;;;5.10;;
70806;SDS011;58882;52.170;5.386;2022-08-14T15:25:23;6.68;;;4.82;;
70806;SDS011;58882;52.170;5.386;2022-08-14T15:28:10;7.40;;;5.05;;
70806;SDS011;58882;52.170;5.386;2022-08-14T15:30:53;6.90;;;4.95;;
70806;SDS011;58882;52.170;5.386;2022-08-14T15:33:42;11.48;;;5.32;;
70806;SDS011;58882;52.170;5.386;2022-08-14T15:37:04;8.82;;;5.30;;
70806;SDS011;58882;52.170;5.386;2022-08-14T15:39:55;9.93;;;5.82;;
70806;SDS011;58882;52.170;5.386;2022-08-14T15:42:42;10.07;;;5.43;;
70806;SDS011;58882;52.170;5.386;2022-08-14T15:45:31;9.77;;;5.05;;
70806;SDS011;58882;52.170;5.386;2022-08-14T15:48:12;10.45;;;5.60;;
70806;SDS011;58882;52.170;5.386;2022-08-14T15:51:02;11.52;;;6.10;;
70806;SDS011;58882;52.170;5.386;2022-08-14T15:53:42;12.55;;;5.88;;
70806;SDS011;58882;52.170;5.386;2022-08-14T15:56:31;8.80;;;5.50;;
70806;SDS011;58882;52.170;5.386;2022-08-14T15:59:15;9.82;;;5.63;;
70806;SDS011;58882;52.170;5.386;2022-08-14T16:02:02;9.93;;;5.63;;
70806;SDS011;58882;52.170;5.386;2022-08-14T16:04:43;7.75;;;5.20;;
70806;SDS011;58882;52.170;5.386;2022-08-14T16:07:33;10.60;;;5.55;;
70806;SDS011;58882;52.170;5.386;2022-08-14T16:10:13;12.60;;;5.50;;
70806;SDS011;58882;52.170;5.386;2022-08-14T16:13:09;10.07;;;5.63;;
70806;SDS011;58882;52.170;5.386;2022-08-14T16:16:20;9.30;;;5.55;;
70806;SDS011;58882;52.170;5.386;2022-08-14T16:19:22;8.05;;;5.70;;
70806;SDS011;58882;52.170;5.386;2022-08-14T16:22:23;13.77;;;5.70;;
70806;SDS011;58882;52.170;5.386;2022-08-14T16:25:23;10.82;;;5.28;;
70806;SDS011;58882;52.170;5.386;2022-08-14T16:28:31;9.88;;;5.70;;
70806;SDS011;58882;52.170;5.386;2022-08-14T16:31:16;10.15;;;5.50;;
70806;SDS011;58882;52.170;5.386;2022-08-14T16:34:15;9.32;;;5.30;;
70806;SDS011;58882;52.170;5.386;2022-08-14T16:37:15;8.93;;;5.80;;
70806;SDS011;58882;52.170;5.386;2022-08-14T16:40:10;8.55;;;5.03;;
70806;SDS011;58882;52.170;5.386;2022-08-14T16:42:51;8.07;;;4.97;;
70806;SDS011;58882;52.170;5.386;2022-08-14T16:45:43;10.82;;;5.40;;
70806;SDS011;58882;52.170;5.386;2022-08-14T16:48:26;8.52;;;5.20;;
70806;SDS011;58882;52.170;5.386;2022-08-14T16:51:33;8.68;;;5.30;;
70806;SDS011;58882;52.170;5.386;2022-08-14T16:54:15;10.48;;;5.75;;
70806;SDS011;58882;52.170;5.386;2022-08-14T16:57:22;9.88;;;5.30;;
70806;SDS011;58882;52.170;5.386;2022-08-14T17:00:07;8.38;;;5.25;;
70806;SDS011;58882;52.170;5.386;2022-08-14T17:03:22;7.53;;;5.15;;
70806;SDS011;58882;52.170;5.386;2022-08-14T17:06:13;8.27;;;5.40;;
70806;SDS011;58882;52.170;5.386;2022-08-14T17:09:47;8.98;;;5.60;;
70806;SDS011;58882;52.170;5.386;2022-08-14T17:12:24;8.02;;;5.35;;
70806;SDS011;58882;52.170;5.386;2022-08-14T17:15:19;7.10;;;5.10;;
70806;SDS011;58882;52.170;5.386;2022-08-14T17:17:59;7.57;;;4.80;;
70806;SDS011;58882;52.170;5.386;2022-08-14T17:20:54;7.05;;;4.72;;